航空気象通報

ウインドサーファーのための航空気象通報による風予報です。

2/26-2/27の航空気象通報(国内、海外)

2012年02月26日 23時31分32秒 | TAF

羽田空港
TAF RJTT 260840Z 2609/2712 35016KT 9999 FEW030 BKN050
日本時間26日18時-27日06時:350度から16ノットの風

静岡空港
TAF RJNS 260840Z 2609/2712 27010KT 9999 FEW020 BKN030
      BECMG 2612/2614 01004KT
      BECMG 2703/2706 27016KT
      TEMPO 2706/2709 27018G28KT
日本時間26日18-21時:270度から10ノットの風
21-23時:風が変化
23時-27日12時:010度から4ノットの風
12-15時:風が変化
15-21時:270度から16ノットの風
但し、15-21時の間:ときどき270度から18ノット、突風28ノット

福岡空港
TAF RJFF 260848Z 2609/2712 33005KT 9999 FEW030 BKN035
      BECMG 2611/2613 10005KT
      BECMG 2700/2703 34005KT
日本時間26日18-20時:330度から5ノットの風
20-22時:風が変化
22時-27日09時:100度から5ノットの風
09-12時:風が変化
12-21時:340度から5ノットの風

那覇空港
TAF ROAH 260842Z 2609/2712 36018KT 9999 SCT020 BKN045
日本時間26日18時-27日21時:360度から18ノットの風

(番外編)石垣空港
TAF ROIG 260844Z 2609/2712 02012KT 9999 FEW020 BKN040
日本時間26日18時-27日21時:020度から12ノットの風

マウイのカフルイ空港
TAF PHOG 261120Z 2612/2712 15005KT P6SM FEW035 BKN250
     FM262000 06014G22KT P6SM FEW035 SCT050
     FM270500 06010G16KT P6SM FEW035 SCT050
     FM270800 05009KT P6SM FEW035 SCT050
      AMD LTD TO WX VIS AND WIND TIL 261600
ハワイ時間26日02-10時:150度から5ノットの風

10-19時:060度から14ノット、突風22ノット
19-22時:060度から10ノット、突風16ノット
22時-27日02時:050度から9ノットの風

サイパン空港
TAF PGSN 261124Z 2612/2712 08009KT P6SM VCSH SCT015 SCT050
     FM270100 08013KT P6SM SCT025
     FM270900 07009KT P6SM VCSH SCT018
マリアナ時間26日22時-27日11時:080度から9ノットの風
11-19時:080度から13ノットの風
19-22時:070度から9ノットの風

ジャンル:
お天気
コメント   この記事についてブログを書く
« 2/25-2/26の航空気象通報(国... | トップ | 2/27-2/28の航空気象通報(国... »
最近の画像もっと見る

コメントを投稿

ブログ作成者から承認されるまでコメントは反映されません。

TAF」カテゴリの最新記事